Wednesday, April 01, 2015
10:41 UTC
  |  Log In   |  Register Free
Airport Search:

Northeast Philadelphia Airport
(KPNE)

FAA data valid effective March 05, 2015 - April 30, 2015 (unless otherwise noted).

 
 
 
 
 
 
 
 
 
 
 
 
 
 

Current Aviation Weather for Northeast Philadelphia Airport (KPNE)

The most recent METAR observation for KPNE was updated at: 1014
METAR Summary (Translated METAR)
KPNE
010954Z AUTO 34008KT 10SM CLR 01/M06 A2998 RMK AO2 SLP151 T00111061 TSNO
KVAY
010954Z AUTO 33007KT 10SM CLR 01/M04 A2996 RMK AO2 SLP146 T00061044
(11.3 nm SE from KPNE)
KLOM
010955Z AUTO 00000KT 10SM CLR 00/M03 A2996 RMK AO1
(12.2 nm NW from KPNE)
TAF Summary (Translated TAF)
KPNE
010520Z 0106/0206 33012KT P6SM SCT100 FM010700 33009KT P6SM FEW120 FM011400 32011KT P6SM SCT045 FM020000 27003KT P6SM SKC
  Airport Weather Conditions for KPNE

 Current Weather at PNE
34° F
Fair
North winds at 9.2 mph
PNE NOAA Radar

Pressure: 29.98 in
Humidity: 59%
Wind: North at 9.2 MPH (8 KT)
Dew Point: 21.0°F
Visibility: 10.00 mi


Airport Weather Forecast for KPNE

Translated METAR and TAF for KPNE
Translated METAR for KPNE (1040 UTC 01 April 2015)
found at http://aviationweather.gov/adds/metars/
 
METAR text: KPNE 010954Z AUTO 34008KT 10SM CLR 01/M06 A2998 RMK AO2 SLP151 T00111061 TSNO
Conditions at: KPNE (PHILADELPHIA/NE , PA, US) observed 0954 UTC 01 April 2015
Temperature: 1.1°C (34°F)
Dewpoint: -6.1°C (21°F) [RH = 59%]
Pressure (altimeter): 29.98 inches Hg (1015.3 mb)
[Sea-level pressure: 1015.1 mb]
Winds: from the NNW (340 degrees) at 9 MPH (8 knots; 4.2 m/s)
Visibility: 10 or more miles (16+ km)
Ceiling: at least 12,000 feet AGL
Clouds: sky clear below 12,000 feet AGL
Weather: automated observation with no human augmentation;
there may or may not be significant weather present at this time
Translated TAF for KPNE
Forecast for: KPNE (PHILADELPHIA/NE , PA, US)
TAF Text: KPNE 010520Z 0106/0206 33012KT P6SM SCT100
Forecast period: 0600 to 0700 UTC 01 April 2015
Forecast type: FROM: standard forecast or significant change
Winds: from the NNW (330 degrees) at 14 MPH (12 knots; 6.2 m/s)
Visibility: 6 or more miles (10+ km)
Clouds: scattered clouds at 10000 feet AGL
Weather: no significant weather forecast for this period
TAF Text: FM010700 33009KT P6SM FEW120
Forecast period: 0700 to 1400 UTC 01 April 2015
Forecast type: FROM: standard forecast or significant change
Winds: from the NNW (330 degrees) at 10 MPH (9 knots; 4.7 m/s)
Visibility: 6 or more miles (10+ km)
Clouds: few clouds at 12000 feet AGL
Weather: no significant weather forecast for this period
TAF Text: FM011400 32011KT P6SM SCT045
Forecast period: 1400 UTC 01 April 2015 to 0000 UTC 02 April 2015
Forecast type: FROM: standard forecast or significant change
Winds: from the NW (320 degrees) at 13 MPH (11 knots; 5.7 m/s)
Visibility: 6 or more miles (10+ km)
Clouds: scattered clouds at 4500 feet AGL
Weather: no significant weather forecast for this period
TAF Text: FM020000 27003KT P6SM SKC
Forecast period: 0000 to 0600 UTC 02 April 2015
Forecast type: FROM: standard forecast or significant change
Winds: from the W (270 degrees) at 3 MPH (3 knots; 1.6 m/s)
Visibility: 6 or more miles (10+ km)
Clouds: clear skies
Weather: no significant weather forecast for this period

Find All Airport Services Find A Hotel Find A Rental Car Find A Golf Course Find A Restaurant $100 Hamburger



FBO's on the Field
FBO Company Facility Photos Services Transportation Aviation Fuel Prices: Prices include tax
Catering Weather Repair Courtesy Rental Type 100LL JetA JetA+ MOGAS 8087
 
Atlantic Aviation

This FBO has not yet been rated
FS:Independent
Last Updated: Mar-31
Login to update fuel prices
SS:
Contact Atlantic AviationMore FBO Information
 
North Philadelphia Jet Center

Currently rated 5 by 2 people
FS:Avfuel
Last Updated: Feb-24
Login to update fuel prices
SS:
Contact North Philadelphia Jet CenterMore FBO Information
 
Add another FBO Facility Photos Catering Weather Repair Courtesy Rental Type 100LL JetA JetA+ MOGAS 8087
Services Transportation Aviation Fuel Prices: Prices include tax


model-print
model-print
model-print
model-print